createdAt,value
2019-01-21T00:02:32.606Z,40.43
2019-01-21T00:11:45.502Z,34.30
2019-01-21T00:27:06.610Z,33.80
2019-01-21T00:32:57.485Z,43.55
2019-01-21T00:39:43.072Z,33.93
2019-01-21T00:43:01.106Z,36.03
2019-01-21T00:46:01.062Z,32.60
2019-01-21T00:49:07.907Z,31.17
2019-01-21T00:58:29.850Z,37.07
2019-01-21T01:04:16.454Z,29.97
2019-01-21T01:07:17.907Z,36.87
2019-01-21T01:20:02.228Z,40.50
2019-01-21T01:23:03.763Z,43.97
2019-01-21T01:32:46.857Z,34.70
2019-01-21T01:38:31.066Z,31.67
2019-01-21T01:44:15.577Z,36.27
2019-01-21T01:49:59.473Z,41.42
2019-01-21T01:53:22.086Z,42.43
2019-01-21T02:05:36.807Z,30.27
2019-01-21T02:08:36.230Z,33.47
2019-01-21T02:14:24.813Z,29.50
2019-01-21T02:17:42.916Z,36.90
2019-01-21T02:21:03.181Z,27.87
2019-01-21T02:24:05.295Z,27.90
2019-01-21T02:29:49.016Z,36.07
2019-01-21T02:35:33.863Z,25.03
2019-01-21T02:41:20.331Z,36.07
2019-01-21T02:47:05.698Z,28.27
2019-01-21T02:52:51.432Z,26.87
2019-01-21T02:55:53.456Z,28.53
2019-01-21T03:01:38.826Z,30.00
2019-01-21T03:07:24.246Z,30.40
2019-01-21T03:13:14.030Z,29.77
2019-01-21T03:22:11.036Z,28.40
2019-01-21T03:27:57.001Z,30.63
2019-01-21T03:33:50.400Z,25.43
2019-01-21T03:43:59.798Z,30.13
2019-01-21T03:49:45.616Z,28.20
2019-01-21T03:52:46.403Z,30.37
2019-01-21T03:58:32.279Z,27.10
2019-01-21T04:04:57.866Z,25.37
2019-01-21T04:10:44.462Z,23.07
2019-01-21T04:16:30.678Z,26.23
2019-01-21T04:22:17.311Z,24.77
2019-01-21T04:25:22.999Z,28.17
2019-01-21T04:31:09.643Z,31.30
2019-01-21T04:36:56.074Z,25.03
2019-01-21T04:42:42.439Z,23.00
2019-01-21T04:48:33.179Z,29.90
2019-01-21T04:54:16.323Z,26.23
2019-01-21T04:57:17.575Z,24.90
2019-01-21T05:03:03.226Z,27.07
2019-01-21T05:08:49.605Z,22.23
2019-01-21T05:14:35.469Z,25.03
2019-01-21T05:24:37.739Z,24.73
2019-01-21T05:30:23.355Z,22.50
2019-01-21T05:37:02.946Z,21.30
2019-01-21T05:40:04.314Z,19.57
2019-01-21T05:45:50.179Z,21.27
2019-01-21T05:51:35.958Z,25.00
2019-01-21T05:54:37.486Z,24.17
2019-01-21T06:00:23.219Z,20.57
2019-01-21T06:06:09.471Z,26.25
2019-01-21T06:15:07.467Z,20.97
2019-01-21T06:18:08.112Z,21.63
2019-01-21T06:23:52.751Z,20.53
2019-01-21T06:26:53.215Z,18.87
2019-01-21T06:29:54.746Z,24.07
2019-01-21T06:32:56.392Z,25.47
2019-01-21T06:38:41.891Z,18.53
2019-01-21T06:44:27.603Z,26.73
2019-01-21T06:50:12.989Z,19.80
2019-01-21T06:59:10.201Z,23.05
2019-01-21T07:02:11.452Z,20.53
2019-01-21T07:07:57.243Z,20.93
2019-01-21T07:10:58.287Z,18.23
2019-01-21T07:14:01.448Z,19.13
2019-01-21T07:17:21.170Z,22.73
2019-01-21T07:23:06.942Z,19.97
2019-01-21T07:28:52.488Z,19.30
2019-01-21T07:31:53.073Z,20.03
2019-01-21T07:37:38.503Z,19.40
2019-01-21T07:43:24.257Z,21.83
2019-01-21T07:49:10.107Z,21.20
2019-01-21T08:01:20.975Z,19.27
2019-01-21T08:04:21.526Z,22.33
2019-01-21T08:07:41.103Z,19.57
2019-01-21T08:10:42.703Z,21.70
2019-01-21T08:13:44.175Z,21.97
2019-01-21T08:19:29.703Z,24.30
2019-01-21T08:25:15.375Z,29.03
2019-01-21T08:31:02.080Z,25.83
2019-01-21T08:36:47.514Z,24.73
2019-01-21T08:39:48.747Z,27.77
2019-01-21T08:45:34.887Z,27.10
2019-01-21T08:51:20.195Z,26.03
2019-01-21T08:57:07.696Z,24.80
2019-01-21T09:00:08.807Z,24.20
2019-01-21T09:05:54.426Z,30.97
2019-01-21T09:11:39.243Z,22.40
2019-01-21T09:17:25.638Z,25.87
2019-01-21T09:23:11.270Z,23.17
2019-01-21T09:28:57.834Z,24.73
2019-01-21T09:32:00.234Z,22.90
2019-01-21T09:35:01.734Z,21.23
2019-01-21T09:41:27.498Z,23.60
2019-01-21T09:44:28.640Z,22.50
2019-01-21T09:50:14.486Z,23.13
2019-01-21T09:55:57.773Z,25.43
2019-01-21T10:01:44.363Z,22.67
2019-01-21T10:04:45.123Z,22.33
2019-01-21T10:10:31.030Z,21.17
2019-01-21T10:16:16.519Z,22.13
2019-01-21T10:22:07.331Z,20.03
2019-01-21T10:27:52.342Z,20.53
2019-01-21T10:33:43.029Z,23.87
2019-01-21T10:39:28.832Z,19.60
2019-01-21T10:42:30.159Z,21.93
2019-01-21T10:51:40.027Z,18.37
2019-01-21T10:54:41.505Z,22.83
2019-01-21T11:00:27.158Z,18.93
2019-01-21T11:03:46.679Z,21.57
2019-01-21T11:09:28.125Z,20.17
2019-01-21T11:15:14.026Z,21.70
2019-01-21T11:24:05.459Z,20.10
2019-01-21T11:27:07.195Z,21.23
2019-01-21T11:32:52.754Z,18.37
2019-01-21T11:38:44.002Z,18.70
2019-01-21T11:41:45.219Z,19.50
2019-01-21T11:45:34.049Z,20.43
2019-01-21T12:03:15.307Z,21.73
2019-01-21T12:12:10.542Z,18.97
2019-01-21T12:15:10.026Z,20.33
2019-01-21T12:20:54.431Z,20.63
2019-01-21T12:24:00.065Z,19.77
2019-01-21T12:29:44.892Z,18.80
2019-01-21T12:32:46.142Z,17.30
2019-01-21T12:35:47.076Z,17.83
2019-01-21T12:41:31.734Z,17.60
2019-01-21T12:47:16.366Z,20.67
2019-01-21T12:50:23.801Z,17.60
2019-01-21T12:56:03.976Z,20.07
2019-01-21T13:01:47.691Z,16.47
2019-01-21T13:04:48.764Z,18.57
2019-01-21T13:07:49.658Z,19.70
2019-01-21T13:13:34.273Z,15.90
2019-01-21T13:16:34.939Z,20.70
2019-01-21T13:19:35.973Z,15.43
2019-01-21T13:22:36.427Z,19.00
2019-01-21T13:28:20.253Z,23.13
2019-01-21T13:34:04.143Z,15.57
2019-01-21T13:37:05.321Z,16.47
2019-01-21T13:40:05.806Z,20.50
2019-01-21T13:43:06.754Z,17.87
2019-01-21T13:48:51.414Z,17.00
2019-01-21T13:54:35.958Z,17.43
2019-01-21T14:00:20.461Z,16.03
2019-01-21T14:06:05.132Z,17.80
2019-01-21T14:11:49.989Z,16.03
2019-01-21T14:14:50.716Z,18.83
2019-01-21T14:20:51.135Z,17.70
2019-01-21T14:26:35.983Z,13.40
2019-01-21T14:29:37.022Z,17.93
2019-01-21T14:32:37.826Z,16.23
2019-01-21T14:35:38.373Z,13.13
2019-01-21T14:38:39.159Z,14.23
2019-01-21T14:41:40.360Z,14.83
2019-01-21T14:47:25.369Z,13.83
2019-01-21T14:53:10.008Z,14.20
2019-01-21T14:56:10.773Z,14.33
2019-01-21T14:59:11.655Z,13.43
2019-01-21T15:02:12.306Z,13.17
2019-01-21T15:05:12.705Z,13.67
2019-01-21T15:08:12.487Z,18.63
2019-01-21T15:14:12.174Z,15.23
2019-01-21T15:17:12.778Z,15.57
2019-01-21T15:20:13.848Z,15.23
2019-01-21T15:23:14.654Z,14.23
2019-01-21T15:26:15.528Z,15.23
2019-01-21T15:29:16.321Z,14.73
2019-01-21T15:32:17.287Z,18.60
2019-01-21T15:35:20.648Z,15.57
2019-01-21T15:38:20.912Z,17.87
2019-01-21T15:41:21.788Z,15.43
2019-01-21T15:44:22.362Z,17.17
2019-01-21T15:50:07.069Z,15.83
2019-01-21T15:55:46.963Z,15.10
2019-01-21T15:58:47.503Z,13.90
2019-01-21T16:01:48.510Z,17.10
2019-01-21T16:04:49.696Z,14.53
2019-01-21T16:07:50.326Z,14.70
2019-01-21T16:10:51.071Z,15.53
2019-01-21T16:16:30.861Z,14.53
2019-01-21T16:22:15.494Z,14.90
2019-01-21T16:27:55.140Z,14.73
2019-01-21T16:33:40.110Z,19.92
2019-01-21T16:36:41.386Z,14.00
2019-01-21T16:39:41.898Z,15.83
2019-01-21T16:42:41.866Z,14.87
2019-01-21T16:48:26.610Z,16.17
2019-01-21T16:51:27.879Z,12.90
2019-01-21T16:54:28.542Z,16.20
2019-01-21T16:57:29.637Z,14.37
2019-01-21T17:00:30.326Z,21.65
2019-01-21T17:03:31.375Z,18.53
2019-01-21T17:09:16.325Z,18.40
2019-01-21T17:15:01.317Z,20.70
2019-01-21T17:18:02.602Z,23.97
2019-01-21T17:21:03.306Z,22.03
2019-01-21T17:24:04.480Z,17.73
2019-01-21T17:29:49.241Z,22.07
2019-01-21T17:35:34.110Z,19.60
2019-01-21T17:38:35.277Z,21.77
2019-01-21T17:44:20.138Z,23.60
2019-01-21T17:50:05.378Z,15.80
2019-01-21T17:53:06.307Z,18.10
2019-01-21T17:56:06.789Z,18.67
2019-01-21T17:59:07.269Z,18.23
2019-01-21T18:04:51.981Z,21.57
2019-01-21T18:10:36.063Z,19.50
2019-01-21T18:16:23.751Z,18.70
2019-01-21T18:19:24.442Z,19.43
2019-01-21T18:25:09.177Z,19.90
2019-01-21T18:30:54.019Z,18.00
2019-01-21T18:36:38.837Z,20.10
2019-01-21T18:39:39.306Z,18.37
2019-01-21T18:42:40.598Z,24.33
2019-01-21T18:45:40.606Z,21.53
2019-01-21T18:51:25.245Z,20.93
2019-01-21T18:57:09.873Z,21.10
2019-01-21T19:00:11.066Z,19.90
2019-01-21T19:05:54.638Z,22.70
2019-01-21T19:11:39.774Z,22.90
2019-01-21T19:17:23.659Z,17.53
2019-01-21T19:20:23.957Z,19.07
2019-01-21T19:23:25.293Z,21.00
2019-01-21T19:26:26.084Z,21.47
2019-01-21T19:29:26.461Z,22.03
2019-01-21T19:32:27.051Z,27.17
2019-01-21T19:35:28.274Z,22.30
2019-01-21T19:41:13.046Z,20.30
2019-01-21T19:46:57.777Z,15.17
2019-01-21T19:52:41.886Z,19.67
2019-01-21T19:55:42.942Z,15.93
2019-01-21T20:01:47.062Z,16.07
2019-01-21T20:07:31.749Z,17.13
2019-01-21T20:10:32.806Z,15.87
2019-01-21T20:13:33.477Z,18.13
2019-01-21T20:16:34.588Z,16.00
2019-01-21T20:22:19.511Z,15.67
2019-01-21T20:28:58.566Z,17.00
2019-01-21T20:35:06.109Z,13.60
2019-01-21T20:38:07.045Z,19.00
2019-01-21T20:43:51.732Z,18.70
2019-01-21T20:46:52.438Z,14.27
2019-01-21T20:52:37.082Z,20.17
2019-01-21T20:58:21.745Z,16.37
2019-01-21T21:04:06.022Z,15.63
2019-01-21T21:07:07.181Z,13.80
2019-01-21T21:12:52.097Z,16.20
2019-01-21T21:18:32.336Z,15.13
2019-01-21T21:24:17.158Z,17.27
2019-01-21T21:27:18.139Z,17.87
2019-01-21T21:33:03.105Z,16.30
2019-01-21T21:38:47.961Z,17.27
2019-01-21T21:44:33.110Z,17.33
2019-01-21T21:47:33.636Z,15.33
2019-01-21T21:54:47.920Z,17.17
2019-01-21T21:57:48.742Z,15.03
2019-01-21T22:03:33.666Z,14.27
2019-01-21T22:17:53.465Z,18.70
2019-01-21T22:20:54.421Z,18.70
2019-01-21T22:23:53.883Z,18.60
2019-01-21T22:29:39.641Z,20.57
2019-01-21T22:41:46.254Z,19.17
2019-01-21T22:44:47.585Z,17.97
2019-01-21T22:50:32.182Z,18.93
2019-01-21T22:59:22.959Z,21.47
2019-01-21T23:05:07.749Z,16.87
2019-01-21T23:11:46.655Z,16.07
2019-01-21T23:17:58.435Z,21.27
2019-01-21T23:21:00.442Z,17.37
2019-01-21T23:26:46.808Z,17.17
2019-01-21T23:29:48.358Z,15.37
2019-01-21T23:35:35.097Z,18.63
2019-01-21T23:41:21.170Z,16.57
2019-01-21T23:47:06.986Z,18.37
2019-01-21T23:50:08.290Z,16.33
2019-01-21T23:59:00.086Z,17.30
